Latest Weather Observations for Cape Flattery

IDQ60801

Issued at 11:02 pm EST Saturday 21 January 2017 (issued every 30 minutes, with the page automatically refreshed every 10 minutes)

About weather observations | Map of weather stations | Latest weather observations for QLD | Other Formats
Station Details ID: 031213 Name: CAPE FLATTERY Lat: -14.97 Lon: 145.31 Height: 18.5 m
Data from the previous 72 hours. | See also: Recent months at Cape Flattery
Date/Time
EST
Temp
°C
App
Temp
°C
Dew
Point
°C
Rel
Hum
%
Delta-T
°C
Wind Press
QNH
hPa
Press
MSL
hPa
Rain since
9am
mm
Dir  Spd
km/h
Gust
km/h
Spd
kts
Gust
kts
21/10:30pm 26.2 31.0 22.1 78 2.8 CALM 0 0 0 0 1009.6 1009.5 0.0
21/10:00pm 27.1 30.0 22.5 76 3.1 WNW 11 13 6 7 1009.4 1009.3 0.0
21/09:30pm 27.7 29.9 22.6 74 3.5 WNW 15 20 8 11 1009.4 1009.3 0.0
21/09:00pm 28.4 30.2 23.5 75 3.4 NW 20 28 11 15 1009.2 1009.1 0.0
21/08:30pm 30.0 30.6 24.2 71 4.0 NNW 28 35 15 19 1008.9 1008.8 0.0
21/08:00pm 30.2 31.3 24.4 71 4.1 NNW 26 33 14 18 1008.5 1008.4 0.0
21/07:30pm 30.2 31.2 24.1 70 4.2 NNW 26 33 14 18 1008.3 1008.2 0.0
21/07:00pm 30.2 31.5 24.1 70 4.2 NNW 24 32 13 17 1007.8 1007.7 0.0
21/06:30pm 30.2 31.7 24.4 71 4.0 NNW 24 32 13 17 1007.8 1007.7 0.0
21/06:00pm 30.1 32.6 24.5 72 3.9 N 19 24 10 13 1007.2 1007.1 0.0
21/05:30pm 30.1 31.7 23.3 67 4.7 N 20 26 11 14 1006.9 1006.8 0.0
21/05:00pm 31.0 33.4 24.6 68 4.5 N 20 30 11 16 1006.5 1006.4 0.0
21/04:30pm 31.5 33.2 24.1 65 5.2 N 22 30 12 16 1005.9 1005.8 0.0
21/04:00pm 31.9 33.9 24.5 65 5.2 N 22 30 12 16 1005.9 1005.8 0.0
21/03:30pm 31.9 34.2 24.5 65 5.2 N 20 28 11 15 1006.2 1006.1 0.0
21/03:00pm 32.4 34.9 24.7 64 5.4 N 20 26 11 14 1006.5 1006.4 0.0
21/02:30pm 31.8 34.1 24.1 63 5.4 N 19 28 10 15 1007.0 1006.9 0.0
21/02:00pm 32.2 35.0 24.3 63 5.5 N 17 22 9 12 1007.3 1007.2 0.0
21/01:30pm 32.1 34.1 23.6 60 5.9 N 19 24 10 13 1007.8 1007.7 0.0
21/01:00pm 32.8 35.5 24.8 62 5.6 N 19 26 10 14 1008.2 1008.1 0.0
21/12:30pm 31.3 34.0 24.2 66 5.0 N 17 24 9 13 1008.6 1008.5 0.0
21/12:00pm 31.7 34.6 23.8 63 5.5 NNE 15 20 8 11 1008.9 1008.8 0.0
21/11:30am 32.8 35.7 23.2 57 6.6 SE 13 20 7 11 1009.4 1009.3 0.0
21/11:00am 33.2 36.3 22.9 54 7.1 WSW 11 19 6 10 1009.9 1009.8 0.0
21/10:30am 32.8 36.4 23.7 58 6.3 WSW 11 17 6 9 1010.2 1010.1 0.0
21/10:00am 31.4 35.8 23.8 64 5.3 SW 7 13 4 7 1010.5 1010.4 0.0
21/09:30am 30.5 34.2 23.9 68 4.6 WSW 11 19 6 10 1010.6 1010.5 0.0
21/09:00am 29.9 32.7 23.6 69 4.4 SW 15 20 8 11 1010.6 1010.5 0.0
21/08:30am 29.9 33.4 23.6 69 4.3 WSW 11 15 6 8 1010.5 1010.4 0.0
21/08:00am 29.3 33.1 24.0 73 3.7 W 11 17 6 9 1010.5 1010.4 0.0
21/07:30am 27.8 33.3 24.6 83 2.2 W 4 7 2 4 1010.4 1010.3 0.0
21/07:00am 26.8 32.8 24.3 86 1.7 CALM 0 0 0 0 1010.1 1010.0 0.0
21/06:30am 25.6 30.8 24.2 92 1.0 WNW 4 6 2 3 1009.9 1009.8 0.0
21/06:00am 24.9 28.6 23.3 91 1.1 WSW 9 11 5 6 1009.6 1009.5 0.0
21/05:30am 24.9 30.3 23.3 91 1.1 CALM 0 0 0 0 1008.9 1008.8 0.0
21/05:00am 25.0 30.4 23.2 90 1.2 CALM 0 0 0 0 1008.5 1008.4 0.0
21/04:30am 25.1 30.5 23.2 89 1.3 CALM 0 0 0 0 1008.0 1007.9 0.0
21/04:00am 25.2 29.9 23.3 89 1.3 SSE 4 6 2 3 1007.9 1007.8 0.0
21/03:30am 25.3 30.7 23.2 88 1.4 CALM 0 0 0 0 1007.9 1007.8 0.0
21/03:00am 25.4 30.8 23.3 88 1.4 CALM 0 0 0 0 1007.9 1007.8 0.0
21/02:30am 25.7 30.8 23.4 87 1.6 WSW 2 6 1 3 1008.0 1007.9 0.0
21/02:00am 25.8 31.4 23.5 87 1.6 CALM 0 0 0 0 1008.2 1008.1 0.0
21/01:30am 25.7 31.2 23.4 87 1.6 CALM 0 0 0 0 1008.3 1008.2 0.0
21/01:00am 26.1 31.5 23.2 84 2.0 CALM 0 2 0 1 1008.2 1008.1 0.0
21/12:30am 26.6 32.0 23.3 82 2.3 CALM 0 2 0 1 1008.2 1008.1 0.0
21/12:00am 27.8 32.0 23.4 77 3.0 WNW 7 9 4 5 1008.5 1008.4 0.0
 
Date/Time
EST
Temp
°C
App
Temp
°C
Dew
Point
°C
Rel
Hum
%
Delta-T
°C
Wind Press
QNH
hPa
Press
MSL
hPa
Rain since
9am
mm
Dir  Spd
km/h
Gust
km/h
Spd
kts
Gust
kts
20/11:30pm 28.4 32.2 23.5 75 3.4 N 9 13 5 7 1008.5 1008.4 0.0
20/11:00pm 28.8 31.9 23.5 73 3.6 NNW 13 17 7 9 1008.7 1008.6 0.0
20/10:30pm 29.1 32.5 24.0 74 3.5 NNW 13 19 7 10 1008.8 1008.7 0.0
20/10:00pm 29.2 32.5 23.9 73 3.7 N 13 19 7 10 1008.7 1008.6 0.0
20/09:30pm 29.3 31.6 23.5 71 4.0 N 17 20 9 11 1008.6 1008.5 0.0
20/09:00pm 29.2 31.6 22.9 69 4.3 N 15 19 8 10 1008.6 1008.5 0.0
20/08:30pm 29.3 31.7 23.0 69 4.3 N 15 20 8 11 1008.3 1008.2 0.0
20/08:00pm 29.3 31.9 23.3 70 4.1 N 15 20 8 11 1008.1 1008.0 0.0
20/07:30pm 29.4 32.1 23.4 70 4.1 N 15 20 8 11 1008.1 1008.0 0.0
20/07:00pm 29.4 31.2 22.6 67 4.6 N 17 26 9 14 1007.8 1007.7 0.0
20/06:30pm 29.7 32.1 22.9 67 4.6 NNE 15 22 8 12 1007.7 1007.6 0.0
20/06:00pm 30.5 33.0 23.2 65 5.0 NNE 15 20 8 11 1007.2 1007.1 0.0
20/05:30pm 31.1 33.6 23.2 63 5.4 N 15 20 8 11 1006.9 1006.8 0.0
20/05:00pm 31.2 33.2 23.0 61 5.6 NNE 17 24 9 13 1006.5 1006.4 0.0
20/04:30pm 31.3 32.6 22.6 60 5.9 NNE 20 26 11 14 1006.1 1006.0 0.0
20/04:00pm 31.8 33.4 22.8 59 6.2 NE 19 24 10 13 1006.3 1006.2 0.0
20/03:30pm 32.1 33.8 23.1 59 6.2 NE 19 26 10 14 1006.6 1006.5 0.0
20/03:00pm 31.7 33.4 23.0 60 6.0 NE 19 28 10 15 1006.9 1006.8 0.0
20/02:30pm 32.1 34.3 23.9 62 5.7 NE 19 26 10 14 1007.3 1007.2 0.0
20/02:00pm 32.0 33.8 23.5 60 5.9 NE 20 28 11 15 1007.5 1007.4 0.0
20/01:30pm 32.0 33.8 23.3 60 6.0 NNE 19 26 10 14 1007.7 1007.6 0.0
20/01:00pm 32.1 34.4 24.4 63 5.4 NE 20 28 11 15 1008.1 1008.0 0.0
20/12:30pm 31.0 32.8 22.6 61 5.7 NNE 17 20 9 11 1008.4 1008.3 0.0
20/12:00pm 30.6 33.6 22.7 62 5.4 NE 11 15 6 8 1008.5 1008.4 0.0
20/11:30am 33.1 36.0 23.1 55 6.9 N 13 20 7 11 1008.6 1008.5 0.0
20/11:00am 32.0 35.0 22.7 58 6.4 N 11 17 6 9 1008.9 1008.8 0.0
20/10:30am 31.2 34.1 21.1 55 6.8 NW 7 15 4 8 1009.4 1009.3 0.0
20/10:00am 30.5 33.2 21.3 58 6.2 WSW 9 17 5 9 1009.8 1009.7 0.0
20/09:30am 31.1 33.8 22.1 58 6.1 SW 11 19 6 10 1010.1 1010.0 0.0
20/09:00am 30.4 33.6 23.1 65 5.0 WSW 11 15 6 8 1010.4 1010.3 0.0
20/08:30am 29.7 33.4 23.2 68 4.5 W 9 13 5 7 1010.4 1010.3 0.0
20/08:00am 28.8 33.0 24.1 76 3.3 WSW 9 11 5 6 1010.4 1010.3 0.0
20/07:30am 26.9 31.4 24.0 84 2.0 SW 7 9 4 5 1010.1 1010.0 0.0
20/07:00am 25.3 30.9 23.5 90 1.2 CALM 0 4 0 2 1009.7 1009.6 0.0
20/06:30am 23.9 29.1 22.9 94 0.7 CALM 0 4 0 2 1009.2 1009.1 0.0
20/06:00am 23.3 28.2 22.3 94 0.7 CALM 0 0 0 0 1008.7 1008.6 0.0
20/05:30am 23.2 28.0 22.2 94 0.7 CALM 0 0 0 0 1008.2 1008.1 0.0
20/05:00am 23.5 28.5 22.5 94 0.7 CALM 0 6 0 3 1007.8 1007.7 0.0
20/04:30am 23.7 28.8 22.7 94 0.7 CALM 0 0 0 0 1007.6 1007.5 0.0
20/04:00am 23.7 28.4 22.7 94 0.7 WSW 2 6 1 3 1007.4 1007.3 0.0
20/03:30am 23.8 28.9 22.6 93 0.8 CALM 0 4 0 2 1007.3 1007.2 0.0
20/03:00am 23.7 28.2 22.3 92 0.9 SSE 2 6 1 3 1007.4 1007.3 0.0
20/02:30am 24.2 28.9 22.6 91 1.1 WSW 2 7 1 4 1007.5 1007.4 0.0
20/02:00am 24.6 30.0 23.2 92 1.0 CALM 0 0 0 0 1007.8 1007.7 0.0
20/01:30am 24.6 30.0 23.2 92 0.9 CALM 0 7 0 4 1008.2 1008.1 0.0
20/01:00am 24.7 29.0 23.3 92 1.0 W 6 7 3 4 1008.3 1008.2 0.0
20/12:30am 24.4 28.4 22.7 90 1.1 W 6 9 3 5 1008.6 1008.5 0.0
20/12:00am 24.8 28.7 22.5 87 1.5 NE 6 7 3 4 1008.8 1008.7 0.0
 
Date/Time
EST
Temp
°C
App
Temp
°C
Dew
Point
°C
Rel
Hum
%
Delta-T
°C
Wind Press
QNH
hPa
Press
MSL
hPa
Rain since
9am
mm
Dir  Spd
km/h
Gust
km/h
Spd
kts
Gust
kts
19/11:30pm 25.6 29.8 23.5 88 1.4 NE 7 7 4 4 1009.1 1009.0 0.0
19/11:00pm 25.2 28.6 22.7 86 1.7 NE 9 9 5 5 1009.5 1009.4 0.0
19/10:30pm 25.4 28.4 22.7 85 1.8 ENE 11 13 6 7 1009.4 1009.3 0.0
19/10:00pm 25.5 28.5 22.6 84 2.0 ENE 11 13 6 7 1009.5 1009.4 0.0
19/09:30pm 25.4 28.2 22.3 83 2.1 ENE 11 13 6 7 1009.5 1009.4 0.0
19/09:00pm 25.8 29.1 22.5 82 2.2 ENE 9 9 5 5 1009.6 1009.5 0.0
19/08:30pm 25.6 28.7 22.1 81 2.3 ENE 9 11 5 6 1009.4 1009.3 0.0
19/08:00pm 26.1 29.6 22.2 79 2.6 NE 7 9 4 5 1009.3 1009.2 0.0
19/07:30pm 26.4 29.3 21.8 76 3.1 ENE 9 11 5 6 1009.1 1009.0 0.0
19/07:00pm 27.7 30.9 22.4 73 3.6 E 9 11 5 6 1008.6 1008.5 0.0
19/06:30pm 29.2 32.3 22.9 69 4.3 E 11 15 6 8 1008.2 1008.1 0.0
19/06:00pm 29.8 32.4 23.3 68 4.5 ESE 15 22 8 12 1007.8 1007.7 0.0
19/05:30pm 30.2 32.1 23.4 67 4.7 ESE 19 26 10 14 1007.3 1007.2 0.0
19/05:00pm 30.4 32.6 24.3 70 4.3 ESE 20 28 11 15 1007.3 1007.2 0.0
19/04:30pm 30.6 32.5 23.8 67 4.7 ESE 20 28 11 15 1007.1 1007.0 0.0
19/04:00pm 31.2 33.3 23.8 64 5.1 E 19 28 10 15 1007.0 1006.9 0.0
19/03:30pm 31.6 33.6 24.0 64 5.3 ESE 20 28 11 15 1007.1 1007.0 0.0
19/03:00pm 31.6 32.6 24.2 65 5.2 SE 26 32 14 17 1007.4 1007.3 0.0
19/02:30pm 32.0 33.4 23.5 60 5.9 ESE 22 32 12 17 1007.8 1007.7 0.0
19/02:00pm 31.9 33.2 23.4 60 5.9 SE 22 30 12 16 1008.1 1008.0 0.0
19/01:30pm 31.8 33.8 23.9 63 5.5 SE 20 30 11 16 1008.6 1008.5 0.0
19/01:00pm 32.1 34.5 24.2 63 5.5 SE 19 24 10 13 1009.0 1008.9 0.0
19/12:30pm 31.5 34.1 23.9 64 5.3 SE 17 24 9 13 1009.6 1009.5 0.0
19/12:00pm 31.8 34.9 24.1 63 5.4 SE 15 24 8 13 1009.8 1009.7 0.0
19/11:30am 31.1 33.7 24.0 66 4.9 SE 17 22 9 12 1010.1 1010.0 0.0
19/11:00am 31.0 33.6 23.9 66 4.9 SE 17 26 9 14 1010.6 1010.5 0.0
19/10:30am 30.6 33.2 24.0 68 4.6 SE 17 22 9 12 1011.0 1010.9 0.0
19/10:00am 30.5 33.6 24.2 69 4.4 SSE 15 22 8 12 1011.0 1010.9 0.0
19/09:30am 30.5 34.1 24.4 70 4.3 SE 13 19 7 10 1011.2 1011.1 0.0
19/09:00am 29.6 32.9 23.8 71 4.0 SSE 13 20 7 11 1011.5 1011.4 0.8
19/08:30am 29.5 32.8 23.9 72 3.9 S 13 19 7 10 1011.7 1011.6 0.8
19/08:00am 28.9 32.4 24.2 76 3.3 S 13 15 7 8 1011.5 1011.4 0.8
19/07:30am 27.8 32.3 25.2 86 1.8 SSW 11 15 6 8 1011.2 1011.1 0.8
19/07:00am 25.8 31.6 24.0 90 1.2 CALM 0 0 0 0 1011.3 1011.2 0.8
19/06:30am 25.2 31.2 24.3 95 0.6 CALM 0 0 0 0 1011.0 1010.9 0.8
19/06:00am 25.0 30.1 24.1 95 0.6 S 4 6 2 3 1010.8 1010.7 0.8
19/05:30am 25.2 29.9 24.3 95 0.6 S 7 9 4 5 1010.6 1010.5 0.8
19/05:00am 25.5 30.4 24.6 95 0.6 SSW 7 11 4 6 1010.2 1010.1 0.8
19/04:30am 25.4 31.5 24.5 95 0.6 CALM 0 6 0 3 1010.0 1009.9 0.8
19/04:00am 25.4 31.5 24.5 95 0.6 CALM 0 0 0 0 1009.7 1009.6 0.8
19/03:30am 25.3 31.0 24.4 95 0.6 W 2 6 1 3 1009.6 1009.5 0.8
19/03:00am 25.2 31.3 24.5 96 0.5 CALM 0 6 0 3 1009.9 1009.8 0.8
19/02:30am 25.0 30.3 24.3 96 0.5 SW 4 7 2 4 1010.1 1010.0 0.8
19/02:00am 24.7 29.3 23.8 95 0.6 WSW 6 7 3 4 1010.2 1010.1 0.8
19/01:30am 24.7 29.7 23.8 95 0.6 WNW 4 7 2 4 1010.4 1010.3 0.8
19/01:00am 24.6 30.2 23.6 94 0.7 CALM 0 0 0 0 1010.7 1010.6 0.8
19/12:30am 25.0 30.4 23.8 93 0.8 ESE 2 6 1 3 1011.0 1010.9 0.8
19/12:00am 25.1 30.9 23.9 93 0.8 CALM 0 0 0 0 1011.1 1011.0 0.8
 
Date/Time
EST
Temp
°C
App
Temp
°C
Dew
Point
°C
Rel
Hum
%
Delta-T
°C
Wind Press
QNH
hPa
Press
MSL
hPa
Rain since
9am
mm
Dir  Spd
km/h
Gust
km/h
Spd
kts
Gust
kts
18/11:30pm 25.1 30.9 23.9 93 0.8 CALM 0 0 0 0 1011.2 1011.1 0.8

Other Formats:

Comma delimited format used in spreadsheet applications
http://www.bom.gov.au/fwo/IDQ60801/IDQ60801.94188.axf

JavaScript Object Notation format (JSON) in row-major order
http://www.bom.gov.au/fwo/IDQ60801/IDQ60801.94188.json